Time;durP1;ratioP1;P1;durP2;ratioP2;P2;SDS_P1;SDS_P2;PMS_P1;PMS_P2;Temp;Humidity;BMP_temperature;BMP_pressure;BME280_temperature;BME280_humidity;BME280_pressure;Samples;Min_cycle;Max_cycle;Signal;HPM_P1;HPM_P2
2021/10/20 00:01:19;;;;;;;17.47;7.97;;;7.00;99.90;;;;;;4973271;28;20177;-60
2021/10/20 00:03:44;;;;;;;17.00;8.93;;;7.00;99.90;;;;;;4974422;28;20608;-60
2021/10/20 00:06:10;;;;;;;30.33;9.30;;;7.00;99.90;;;;;;4980037;28;20264;-59
2021/10/20 00:08:36;;;;;;;28.20;8.57;;;7.00;99.90;;;;;;4988064;28;20248;-60
2021/10/20 00:11:01;;;;;;;30.63;7.57;;;6.90;99.90;;;;;;5009910;23;20662;-56
2021/10/20 00:13:27;;;;;;;21.43;8.30;;;6.90;99.90;;;;;;4980879;28;20256;-57
2021/10/20 00:15:54;;;;;;;27.70;7.80;;;6.90;99.90;;;;;;4972273;28;20273;-57
2021/10/20 00:18:20;;;;;;;33.63;8.00;;;6.80;99.90;;;;;;4990580;28;20196;-57
2021/10/20 00:20:46;;;;;;;31.47;7.77;;;6.80;99.90;;;;;;4983324;28;20441;-57
2021/10/20 00:23:13;;;;;;;32.00;7.80;;;6.80;99.90;;;;;;4973015;28;20437;-56
2021/10/20 00:25:39;;;;;;;32.47;7.80;;;6.70;99.90;;;;;;4991000;28;20427;-57
2021/10/20 00:28:05;;;;;;;39.07;8.70;;;6.70;99.90;;;;;;4989890;28;20424;-55
2021/10/20 00:30:31;;;;;;;39.10;8.70;;;6.70;99.90;;;;;;4979726;28;20452;-56
2021/10/20 00:32:57;;;;;;;27.23;7.40;;;6.60;99.90;;;;;;4971643;28;20434;-56
2021/10/20 00:35:23;;;;;;;24.73;8.30;;;6.60;99.90;;;;;;4981595;28;20617;-57
2021/10/20 00:37:48;;;;;;;37.63;8.30;;;6.50;99.90;;;;;;4989168;28;20183;-57
2021/10/20 00:40:14;;;;;;;25.97;7.20;;;6.50;99.90;;;;;;4972204;28;20985;-57
2021/10/20 00:42:43;;;;;;;31.73;7.33;;;6.40;99.90;;;;;;4971955;28;20177;-58
2021/10/20 00:45:12;;;;;;;20.83;6.93;;;6.40;99.90;;;;;;4977150;28;20436;-57
2021/10/20 00:47:39;;;;;;;22.63;6.73;;;6.40;99.90;;;;;;4974844;28;20436;-56
2021/10/20 00:50:08;;;;;;;13.40;7.17;;;6.40;99.90;;;;;;4986303;28;20464;-58
2021/10/20 00:52:34;;;;;;;17.60;6.40;;;6.40;99.90;;;;;;4991441;28;20408;-56
2021/10/20 00:55:00;;;;;;;21.80;7.40;;;6.40;99.90;;;;;;4976376;28;20521;-57
2021/10/20 00:57:29;;;;;;;29.23;7.50;;;6.30;99.90;;;;;;4981423;28;20186;-56
2021/10/20 00:59:58;;;;;;;19.63;7.03;;;6.30;99.90;;;;;;4990143;28;20439;-57
2021/10/20 01:02:24;;;;;;;15.97;6.70;;;6.30;99.90;;;;;;4991325;28;20455;-55
2021/10/20 01:04:50;;;;;;;17.73;7.10;;;6.30;99.90;;;;;;4973523;28;20523;-58
2021/10/20 01:07:17;;;;;;;9.93;6.70;;;6.20;99.90;;;;;;4977683;28;20185;-56
2021/10/20 01:09:44;;;;;;;10.53;6.80;;;6.20;99.90;;;;;;4985875;28;20507;-57
2021/10/20 01:12:10;;;;;;;17.27;6.90;;;6.20;99.90;;;;;;4990602;28;21020;-57
2021/10/20 01:14:36;;;;;;;27.37;7.20;;;6.20;99.90;;;;;;4988805;28;20491;-57
2021/10/20 01:17:02;;;;;;;16.67;6.40;;;6.20;99.90;;;;;;4990805;28;20488;-57
2021/10/20 01:19:28;;;;;;;15.43;6.30;;;6.10;99.90;;;;;;4986644;28;20515;-56
2021/10/20 01:21:54;;;;;;;13.00;6.40;;;6.10;99.90;;;;;;4980938;28;20467;-56
2021/10/20 01:24:22;;;;;;;20.77;7.63;;;6.00;99.90;;;;;;4982728;28;20416;-57
2021/10/20 01:26:50;;;;;;;10.40;6.30;;;6.00;99.90;;;;;;4976847;28;20595;-57
2021/10/20 01:29:15;;;;;;;9.93;6.03;;;6.00;99.90;;;;;;4976857;28;20467;-57
2021/10/20 01:31:49;;;;;;;16.03;6.37;;;5.90;99.90;;;;;;4977682;28;20447;-56
2021/10/20 01:34:14;;;;;;;24.17;6.30;;;5.90;99.90;;;;;;4982711;28;20200;-58
2021/10/20 01:36:41;;;;;;;12.50;6.30;;;5.90;99.90;;;;;;4980325;28;20428;-56
2021/10/20 01:39:10;;;;;;;7.43;5.60;;;5.90;99.90;;;;;;4981337;28;20803;-56
2021/10/20 01:41:37;;;;;;;16.50;6.80;;;5.90;99.90;;;;;;4995766;28;20747;-53
2021/10/20 01:44:04;;;;;;;10.20;6.03;;;5.90;99.90;;;;;;4990432;28;20463;-57
2021/10/20 01:46:30;;;;;;;14.43;6.40;;;5.80;99.90;;;;;;4988277;28;20471;-55
2021/10/20 01:48:55;;;;;;;33.90;6.70;;;5.80;99.90;;;;;;4983051;28;20455;-56
2021/10/20 01:51:21;;;;;;;18.83;6.10;;;5.80;99.90;;;;;;4987373;28;20228;-57
2021/10/20 01:53:47;;;;;;;22.37;5.67;;;5.80;99.90;;;;;;4987929;28;20184;-56
2021/10/20 01:56:13;;;;;;;17.77;6.30;;;5.70;99.90;;;;;;4984927;28;20603;-55
2021/10/20 01:58:40;;;;;;;11.33;5.83;;;5.70;99.90;;;;;;4989369;28;20421;-56
2021/10/20 02:01:09;;;;;;;29.47;5.50;;;5.70;99.90;;;;;;4982646;28;20455;-56
2021/10/20 02:03:39;;;;;;;8.70;5.40;;;5.70;99.90;;;;;;4971753;28;20429;-57
2021/10/20 02:06:09;;;;;;;16.57;5.60;;;5.70;99.90;;;;;;4987351;28;20451;-55
2021/10/20 02:08:35;;;;;;;10.27;5.50;;;5.70;99.90;;;;;;4975696;28;20449;-56
2021/10/20 02:11:01;;;;;;;11.00;5.80;;;5.70;99.90;;;;;;4981134;28;20475;-56
2021/10/20 02:13:27;;;;;;;32.83;5.80;;;5.70;99.90;;;;;;4988557;28;20802;-56
2021/10/20 02:15:53;;;;;;;34.23;6.37;;;5.70;99.90;;;;;;4988548;28;20457;-55
2021/10/20 02:18:18;;;;;;;25.63;5.97;;;5.70;99.90;;;;;;4988922;28;20292;-55
2021/10/20 02:20:44;;;;;;;15.70;5.60;;;5.60;99.90;;;;;;4978014;28;20920;-56
2021/10/20 02:23:11;;;;;;;27.83;6.10;;;5.60;99.90;;;;;;4978187;28;21072;-57
2021/10/20 02:25:37;;;;;;;16.77;5.60;;;5.60;99.90;;;;;;4970148;28;20433;-55
2021/10/20 02:28:03;;;;;;;19.23;5.40;;;5.60;99.90;;;;;;4968965;28;20424;-55
2021/10/20 02:30:29;;;;;;;24.50;5.50;;;5.50;99.90;;;;;;4977641;28;20189;-56
2021/10/20 02:32:55;;;;;;;14.90;4.50;;;5.50;99.90;;;;;;4989072;28;20409;-55
2021/10/20 02:35:21;;;;;;;13.67;5.10;;;5.50;99.90;;;;;;4984525;28;20415;-55
2021/10/20 02:37:47;;;;;;;19.57;5.43;;;5.50;99.90;;;;;;4982804;28;20183;-55
2021/10/20 02:40:14;;;;;;;8.10;5.87;;;5.50;99.90;;;;;;4976088;28;20506;-55
2021/10/20 02:42:40;;;;;;;5.60;4.80;;;5.50;99.90;;;;;;4984230;28;20267;-60
2021/10/20 02:45:08;;;;;;;6.33;4.83;;;5.40;99.90;;;;;;4976825;28;20456;-56
2021/10/20 02:47:33;;;;;;;10.30;4.73;;;5.40;99.90;;;;;;4984745;28;20484;-56
2021/10/20 02:49:59;;;;;;;24.97;5.60;;;5.40;99.90;;;;;;4987168;28;20466;-55
2021/10/20 02:52:25;;;;;;;26.73;5.90;;;5.40;99.90;;;;;;4988617;28;20169;-55
2021/10/20 02:54:50;;;;;;;26.77;5.00;;;5.40;99.90;;;;;;4969706;28;20178;-56
2021/10/20 02:57:16;;;;;;;19.23;5.50;;;5.40;99.90;;;;;;4973008;28;20176;-55
2021/10/20 02:59:41;;;;;;;17.10;5.40;;;5.40;99.90;;;;;;4981293;28;20188;-56
2021/10/20 03:02:07;;;;;;;16.20;5.87;;;5.40;99.90;;;;;;4987030;28;20177;-54
2021/10/20 03:04:33;;;;;;;21.00;6.40;;;5.40;99.90;;;;;;4979559;28;20713;-56
2021/10/20 03:06:58;;;;;;;61.07;6.40;;;5.40;99.90;;;;;;4986638;28;20178;-56
2021/10/20 03:09:24;;;;;;;18.87;6.50;;;5.40;99.90;;;;;;4985973;28;20218;-55
2021/10/20 03:11:49;;;;;;;36.63;5.57;;;5.30;99.90;;;;;;4988793;28;20213;-56
2021/10/20 03:14:15;;;;;;;20.50;5.70;;;5.30;99.90;;;;;;4988468;28;20174;-55
2021/10/20 03:16:42;;;;;;;22.83;5.63;;;5.30;99.90;;;;;;4979387;28;20176;-57
2021/10/20 03:19:07;;;;;;;6.47;4.60;;;5.20;99.90;;;;;;4989361;28;20196;-57
2021/10/20 03:21:33;;;;;;;4.97;4.43;;;5.20;99.90;;;;;;4987899;28;20448;-57
2021/10/20 03:23:59;;;;;;;10.07;5.37;;;5.10;99.90;;;;;;4971608;28;20181;-54
2021/10/20 03:26:25;;;;;;;19.57;5.20;;;5.10;99.90;;;;;;4969722;28;20448;-55
2021/10/20 03:28:51;;;;;;;31.30;5.20;;;5.10;99.90;;;;;;4968382;28;20205;-54
2021/10/20 03:31:19;;;;;;;6.87;4.97;;;5.00;99.90;;;;;;4970058;28;20460;-55
2021/10/20 03:33:45;;;;;;;8.60;5.10;;;5.00;99.90;;;;;;4988292;28;20181;-55
2021/10/20 03:36:11;;;;;;;19.00;5.27;;;5.00;99.90;;;;;;4982683;28;20437;-55
2021/10/20 03:38:37;;;;;;;7.27;4.33;;;5.00;99.90;;;;;;4988784;28;20417;-55
2021/10/20 03:41:05;;;;;;;5.57;4.40;;;5.00;99.90;;;;;;4986680;28;20664;-55
2021/10/20 03:43:31;;;;;;;9.53;4.70;;;5.00;99.90;;;;;;4976005;28;20885;-56
2021/10/20 03:45:57;;;;;;;8.53;4.73;;;5.00;99.90;;;;;;4984071;28;20447;-55
2021/10/20 03:48:22;;;;;;;14.67;5.30;;;5.00;99.90;;;;;;4987012;28;20205;-55
2021/10/20 03:50:48;;;;;;;20.20;5.20;;;5.00;99.90;;;;;;4979579;28;20213;-56
2021/10/20 03:53:14;;;;;;;9.60;4.53;;;5.00;99.90;;;;;;4972213;28;20612;-56
2021/10/20 03:55:39;;;;;;;16.00;5.87;;;5.00;99.90;;;;;;4983394;28;20173;-54
2021/10/20 03:58:05;;;;;;;24.93;5.20;;;5.00;99.90;;;;;;4988936;28;20544;-54
2021/10/20 04:00:31;;;;;;;15.47;5.17;;;5.00;99.90;;;;;;4986956;28;20201;-57
2021/10/20 04:02:57;;;;;;;15.73;7.03;;;5.00;99.90;;;;;;4980814;28;20170;-56
2021/10/20 04:05:22;;;;;;;13.43;6.23;;;5.00;99.90;;;;;;4978466;28;20456;-56
2021/10/20 04:07:50;;;;;;;22.83;5.57;;;5.00;99.90;;;;;;4983026;28;20271;-55
2021/10/20 04:10:21;;;;;;;19.13;5.53;;;5.00;99.90;;;;;;4970744;28;20288;-55
2021/10/20 04:12:47;;;;;;;31.53;5.30;;;5.00;99.90;;;;;;4977083;28;20458;-56
2021/10/20 04:15:14;;;;;;;16.83;4.77;;;5.00;99.90;;;;;;4978666;28;20432;-56
2021/10/20 04:17:43;;;;;;;7.43;4.50;;;4.90;99.90;;;;;;4977934;28;20512;-55
2021/10/20 04:20:16;;;;;;;5.43;4.77;;;4.90;99.90;;;;;;4979192;28;20484;-56
2021/10/20 04:22:43;;;;;;;5.00;4.50;;;4.90;99.90;;;;;;4977682;28;20793;-56
2021/10/20 04:25:10;;;;;;;4.90;3.77;;;4.90;99.90;;;;;;4978923;28;20441;-56
2021/10/20 04:27:36;;;;;;;5.17;4.60;;;4.90;99.90;;;;;;4980522;28;20436;-56
2021/10/20 04:30:05;;;;;;;5.93;4.77;;;4.80;99.90;;;;;;4982120;28;20968;-56
2021/10/20 04:32:30;;;;;;;16.40;5.03;;;4.80;99.90;;;;;;4977603;28;20446;-55
2021/10/20 04:34:56;;;;;;;8.20;4.40;;;4.80;99.90;;;;;;4990037;28;20960;-54
2021/10/20 04:37:25;;;;;;;31.73;7.73;;;4.80;99.90;;;;;;4982584;28;20189;-57
2021/10/20 04:39:58;;;;;;;31.03;5.97;;;4.70;99.90;;;;;;4976091;28;20212;-52
2021/10/20 04:42:28;;;;;;;29.40;5.43;;;4.70;99.90;;;;;;4975387;28;20530;-55
2021/10/20 04:44:54;;;;;;;9.80;5.83;;;4.70;99.90;;;;;;4984650;28;20981;-56
2021/10/20 04:47:20;;;;;;;36.00;8.27;;;4.70;99.90;;;;;;4977904;28;20443;-55
2021/10/20 04:49:46;;;;;;;37.60;6.83;;;4.70;99.90;;;;;;4978416;28;20188;-56
2021/10/20 04:52:12;;;;;;;22.10;6.13;;;4.70;99.90;;;;;;4983657;28;20252;-55
2021/10/20 04:54:38;;;;;;;95.03;8.43;;;4.70;99.90;;;;;;4984429;28;20921;-54
2021/10/20 04:57:04;;;;;;;61.77;7.40;;;4.70;99.90;;;;;;4974176;28;20189;-55
2021/10/20 04:59:34;;;;;;;95.30;8.47;;;4.70;99.90;;;;;;4976999;28;20454;-55
2021/10/20 05:02:01;;;;;;;38.37;6.77;;;4.70;99.90;;;;;;4978264;28;20552;-55
2021/10/20 05:04:27;;;;;;;78.57;8.33;;;4.70;99.90;;;;;;4989925;28;20431;-55
2021/10/20 05:06:53;;;;;;;86.27;7.63;;;4.70;99.90;;;;;;4990772;28;20580;-55
2021/10/20 05:09:18;;;;;;;48.87;7.30;;;4.70;99.90;;;;;;4983207;28;20453;-55
2021/10/20 05:11:44;;;;;;;41.30;8.30;;;4.60;99.90;;;;;;4986654;28;20205;-55
2021/10/20 05:14:10;;;;;;;74.20;8.03;;;4.60;99.90;;;;;;4971939;28;20163;-55
2021/10/20 05:16:36;;;;;;;46.43;7.77;;;4.50;99.90;;;;;;4971317;28;20220;-54
2021/10/20 05:19:02;;;;;;;41.37;6.60;;;4.50;99.90;;;;;;4974794;28;20181;-57
2021/10/20 05:21:27;;;;;;;30.73;6.80;;;4.50;99.90;;;;;;4985371;28;20189;-57
2021/10/20 05:23:53;;;;;;;24.33;7.70;;;4.40;99.90;;;;;;4976758;28;20420;-55
2021/10/20 05:26:19;;;;;;;25.50;6.70;;;4.40;99.90;;;;;;4970984;28;20677;-57
2021/10/20 05:28:45;;;;;;;18.03;6.67;;;4.40;99.90;;;;;;4976222;28;20207;-56
2021/10/20 05:31:11;;;;;;;19.40;6.27;;;4.40;99.90;;;;;;4982859;28;20441;-55
2021/10/20 05:33:37;;;;;;;20.63;6.43;;;4.40;99.90;;;;;;4975250;28;20228;-57
2021/10/20 05:36:03;;;;;;;19.13;6.07;;;4.40;99.90;;;;;;4971883;28;20666;-56
2021/10/20 05:38:29;;;;;;;15.43;5.43;;;4.40;99.90;;;;;;4990481;28;20409;-55
2021/10/20 05:40:54;;;;;;;20.53;5.30;;;4.40;99.90;;;;;;4990448;28;20813;-56
2021/10/20 05:43:20;;;;;;;19.70;4.70;;;4.40;99.90;;;;;;4990696;28;20730;-55
2021/10/20 05:45:46;;;;;;;6.13;4.97;;;4.40;99.90;;;;;;4988749;28;20173;-55
2021/10/20 05:48:13;;;;;;;17.83;5.43;;;4.40;99.90;;;;;;4980412;28;20431;-55
2021/10/20 05:50:38;;;;;;;8.00;4.77;;;4.40;99.90;;;;;;4970918;28;20452;-56
2021/10/20 05:53:04;;;;;;;8.60;4.93;;;4.40;99.90;;;;;;4977907;28;20424;-55
2021/10/20 05:55:30;;;;;;;8.90;4.87;;;4.50;99.90;;;;;;4988719;28;20209;-55
2021/10/20 05:57:55;;;;;;;8.33;5.10;;;4.40;99.90;;;;;;4989918;28;20209;-56
2021/10/20 06:00:21;;;;;;;7.90;4.97;;;4.50;99.90;;;;;;4987197;28;20220;-56
2021/10/20 06:02:47;;;;;;;14.93;5.17;;;4.40;99.90;;;;;;4988138;28;20262;-55
2021/10/20 06:05:12;;;;;;;15.83;5.43;;;4.50;99.90;;;;;;4984253;28;20280;-56
2021/10/20 06:07:39;;;;;;;14.03;5.77;;;4.50;99.90;;;;;;4988552;28;20193;-56
2021/10/20 06:12:41;;;;;;;7.33;5.10;;;4.40;99.90;;;;;;5010362;23;20492;-62
2021/10/20 06:15:08;;;;;;;10.87;5.90;;;4.50;99.90;;;;;;4986359;28;20408;-62
2021/10/20 06:17:35;;;;;;;9.57;6.23;;;4.50;99.90;;;;;;4969854;28;21078;-62
2021/10/20 06:20:01;;;;;;;8.50;5.90;;;4.50;99.90;;;;;;4971113;28;20501;-62
2021/10/20 06:22:27;;;;;;;14.20;6.67;;;4.50;99.90;;;;;;4953666;28;20473;-63
2021/10/20 06:24:53;;;;;;;20.97;7.00;;;4.50;99.90;;;;;;4950514;29;20790;-62
2021/10/20 06:27:18;;;;;;;14.90;6.63;;;4.50;99.90;;;;;;4942721;29;20429;-62
2021/10/20 06:29:44;;;;;;;21.30;7.67;;;4.50;99.90;;;;;;4948494;29;20205;-62
2021/10/20 06:32:10;;;;;;;37.17;8.73;;;4.50;99.90;;;;;;4966048;28;20679;-62
2021/10/20 06:34:35;;;;;;;36.57;8.53;;;4.60;99.90;;;;;;4951086;29;20662;-62
2021/10/20 06:37:02;;;;;;;35.80;8.97;;;4.60;99.90;;;;;;4951203;29;20208;-62
2021/10/20 06:39:29;;;;;;;32.50;9.60;;;4.60;99.90;;;;;;4951191;29;20566;-62
2021/10/20 06:41:54;;;;;;;57.40;10.40;;;4.60;99.90;;;;;;4949481;28;20458;-62
2021/10/20 06:44:20;;;;;;;48.13;13.13;;;4.70;99.90;;;;;;4942806;28;20421;-62
2021/10/20 06:46:47;;;;;;;53.97;11.80;;;4.70;99.90;;;;;;4945646;29;20189;-62
2021/10/20 06:49:13;;;;;;;58.80;11.87;;;4.80;99.90;;;;;;4965388;28;20445;-62
2021/10/20 06:51:40;;;;;;;50.43;12.10;;;4.90;99.90;;;;;;4950477;28;20630;-61
2021/10/20 06:54:05;;;;;;;59.10;11.20;;;4.90;99.90;;;;;;4953005;28;20441;-63
2021/10/20 06:56:31;;;;;;;36.90;10.77;;;5.00;99.90;;;;;;4955214;28;20466;-60
2021/10/20 06:58:57;;;;;;;51.43;11.00;;;5.10;99.90;;;;;;4948452;29;20179;-62
2021/10/20 07:01:22;;;;;;;36.00;9.10;;;5.10;99.90;;;;;;4941347;28;20211;-62
2021/10/20 07:03:48;;;;;;;24.60;8.17;;;5.20;99.90;;;;;;4946515;29;20179;-63
2021/10/20 07:06:14;;;;;;;25.20;7.93;;;5.20;99.90;;;;;;4951581;29;20186;-62
2021/10/20 07:08:39;;;;;;;22.07;8.10;;;5.30;99.90;;;;;;4950766;29;20565;-62
2021/10/20 07:11:05;;;;;;;25.80;8.50;;;5.30;99.90;;;;;;4951128;28;20214;-62
2021/10/20 07:13:30;;;;;;;27.80;8.97;;;5.30;99.90;;;;;;4952208;29;20192;-62
2021/10/20 07:15:58;;;;;;;28.70;9.23;;;5.30;99.90;;;;;;4950263;29;20655;-61
2021/10/20 07:18:26;;;;;;;15.73;7.40;;;5.40;99.90;;;;;;4949888;28;20592;-62
2021/10/20 07:20:53;;;;;;;18.03;6.27;;;5.40;99.90;;;;;;4951557;28;20470;-63
2021/10/20 07:23:19;;;;;;;11.07;5.67;;;5.40;99.90;;;;;;4947944;28;20800;-62
2021/10/20 07:25:44;;;;;;;14.80;6.40;;;5.50;99.90;;;;;;4946963;29;20494;-62
2021/10/20 07:28:10;;;;;;;20.40;7.30;;;5.60;99.90;;;;;;4950045;29;20559;-62
2021/10/20 07:30:37;;;;;;;15.13;7.57;;;5.70;99.90;;;;;;4951661;28;20252;-62
2021/10/20 07:33:03;;;;;;;13.53;6.87;;;5.70;99.90;;;;;;4951491;28;20201;-62
2021/10/20 07:35:29;;;;;;;17.70;8.80;;;5.80;99.90;;;;;;4951826;28;20438;-62
2021/10/20 07:37:54;;;;;;;22.07;10.27;;;5.80;99.90;;;;;;4988090;28;20205;-62
2021/10/20 07:40:20;;;;;;;25.47;11.47;;;5.90;99.90;;;;;;4957571;28;20633;-62
2021/10/20 07:42:46;;;;;;;29.37;12.77;;;6.00;99.90;;;;;;4955207;29;20163;-62
2021/10/20 07:45:16;;;;;;;38.93;14.30;;;6.00;99.90;;;;;;4952778;28;20408;-62
2021/10/20 07:47:43;;;;;;;31.03;13.70;;;6.10;99.90;;;;;;4954314;28;20181;-62
2021/10/20 07:50:09;;;;;;;32.90;13.83;;;6.20;99.90;;;;;;4954733;28;20460;-62
2021/10/20 07:52:35;;;;;;;31.77;13.60;;;6.30;99.90;;;;;;4943235;28;20907;-62
2021/10/20 07:55:03;;;;;;;30.07;13.17;;;6.40;99.90;;;;;;4937992;29;20529;-62
2021/10/20 07:57:29;;;;;;;34.17;13.33;;;6.50;99.90;;;;;;4953552;28;20257;-62
2021/10/20 07:59:55;;;;;;;31.47;13.37;;;6.70;99.90;;;;;;4947688;29;20466;-62
2021/10/20 08:02:21;;;;;;;32.70;14.40;;;6.80;99.90;;;;;;4954120;28;20850;-62
2021/10/20 08:04:47;;;;;;;35.17;14.67;;;6.90;99.90;;;;;;4954244;29;20265;-62
2021/10/20 08:07:13;;;;;;;35.23;14.90;;;7.00;99.90;;;;;;4949258;28;20514;-62
2021/10/20 08:09:38;;;;;;;33.00;13.03;;;7.10;99.90;;;;;;4945820;29;20210;-62
2021/10/20 08:12:04;;;;;;;25.50;13.20;;;7.20;99.90;;;;;;4954523;28;20824;-62
2021/10/20 08:14:32;;;;;;;23.13;14.10;;;7.30;99.90;;;;;;4953917;29;20182;-62
2021/10/20 08:16:58;;;;;;;22.60;11.37;;;7.40;99.90;;;;;;4951918;28;20509;-62
2021/10/20 08:19:23;;;;;;;23.63;12.60;;;7.50;99.90;;;;;;4952575;29;20529;-62
2021/10/20 08:21:49;;;;;;;25.53;12.37;;;7.60;99.90;;;;;;4953439;29;20210;-62
2021/10/20 08:24:14;;;;;;;24.83;12.90;;;7.70;99.90;;;;;;4952471;29;20265;-62
2021/10/20 08:26:40;;;;;;;20.60;11.17;;;7.80;99.90;;;;;;4952028;29;20218;-62
2021/10/20 08:29:07;;;;;;;28.10;11.90;;;8.00;99.90;;;;;;4953999;29;20198;-62
2021/10/20 08:31:33;;;;;;;16.23;10.37;;;8.20;99.90;;;;;;4953239;28;20209;-62
2021/10/20 08:33:58;;;;;;;29.90;12.27;;;8.30;99.90;;;;;;4951794;29;20426;-62
2021/10/20 08:36:24;;;;;;;50.87;12.87;;;8.50;99.90;;;;;;4953474;29;20190;-62
2021/10/20 08:38:49;;;;;;;30.70;13.87;;;8.60;99.90;;;;;;4952772;29;20230;-62
2021/10/20 08:41:16;;;;;;;32.93;14.73;;;8.80;99.90;;;;;;4953122;28;20272;-63
2021/10/20 08:43:41;;;;;;;30.97;14.17;;;8.90;99.90;;;;;;4941443;29;20222;-62
2021/10/20 08:46:07;;;;;;;26.77;13.57;;;9.00;99.90;;;;;;4934102;29;20900;-62
2021/10/20 08:48:33;;;;;;;22.43;12.93;;;9.20;99.90;;;;;;4953900;29;20183;-62
2021/10/20 08:51:01;;;;;;;33.20;12.93;;;9.30;99.90;;;;;;4952953;28;20203;-61
2021/10/20 08:53:27;;;;;;;25.57;13.70;;;9.40;99.90;;;;;;4953322;28;20177;-62
2021/10/20 08:55:53;;;;;;;23.93;13.50;;;9.60;99.90;;;;;;4952008;29;20802;-62
2021/10/20 08:58:20;;;;;;;23.20;13.00;;;9.70;99.90;;;;;;4953608;28;20167;-62
2021/10/20 09:00:46;;;;;;;28.13;15.90;;;9.90;99.90;;;;;;4960279;28;20623;-63
2021/10/20 09:03:13;;;;;;;31.63;17.37;;;10.10;99.90;;;;;;4953412;29;20570;-62
2021/10/20 09:05:39;;;;;;;33.17;16.90;;;10.20;99.90;;;;;;4957620;28;20190;-63
2021/10/20 09:08:06;;;;;;;27.27;15.90;;;10.40;99.90;;;;;;4957139;28;20426;-61
2021/10/20 09:10:32;;;;;;;21.50;12.67;;;10.60;99.90;;;;;;4966823;28;20470;-63
2021/10/20 09:12:59;;;;;;;13.33;9.03;;;10.80;99.90;;;;;;4933719;29;20426;-62
2021/10/20 09:15:27;;;;;;;13.90;7.93;;;11.10;99.90;;;;;;4946629;29;20410;-62
2021/10/20 09:18:11;;;;;;;11.50;7.40;;;11.40;99.90;;;;;;4947215;28;20481;-62
2021/10/20 09:20:43;;;;;;;8.80;6.17;;;11.70;99.90;;;;;;4950069;28;21058;-62
2021/10/20 09:23:20;;;;;;;12.93;6.97;;;12.00;99.90;;;;;;4966755;28;20426;-61
2021/10/20 09:25:57;;;;;;;11.40;6.80;;;12.30;99.90;;;;;;4951832;28;20512;-62
2021/10/20 09:28:33;;;;;;;6.47;4.70;;;12.60;99.90;;;;;;4952198;29;20430;-62
2021/10/20 09:31:05;;;;;;;6.40;4.73;;;12.80;99.90;;;;;;4952713;28;20542;-62
2021/10/20 09:33:40;;;;;;;8.57;5.10;;;13.00;99.90;;;;;;4949841;29;20418;-62
2021/10/20 09:36:17;;;;;;;6.60;5.57;;;13.20;99.90;;;;;;4948794;29;20480;-62
2021/10/20 09:38:47;;;;;;;6.13;4.70;;;13.40;99.90;;;;;;4951877;28;20430;-63
2021/10/20 09:41:13;;;;;;;8.40;4.77;;;13.50;99.90;;;;;;4952606;28;20496;-63
2021/10/20 09:43:53;;;;;;;11.83;4.87;;;13.60;99.90;;;;;;4952043;28;20480;-63
2021/10/20 09:46:36;;;;;;;7.23;4.33;;;13.70;99.60;;;;;;4950785;29;20473;-63
2021/10/20 09:49:13;;;;;;;5.07;4.57;;;13.70;98.60;;;;;;4952148;28;20446;-63
2021/10/20 09:51:39;;;;;;;6.77;5.00;;;13.70;98.60;;;;;;4948607;29;20477;-63
2021/10/20 09:54:21;;;;;;;5.47;4.10;;;13.70;99.00;;;;;;4951250;29;20837;-62
2021/10/20 09:56:57;;;;;;;6.70;4.47;;;13.90;98.40;;;;;;4951470;28;20171;-61
2021/10/20 09:59:27;;;;;;;5.27;3.77;;;14.10;98.20;;;;;;4950722;29;20936;-62
2021/10/20 10:01:53;;;;;;;5.60;4.27;;;14.30;97.50;;;;;;4951829;28;21029;-60
2021/10/20 10:04:19;;;;;;;6.73;4.20;;;14.50;95.90;;;;;;4952048;29;20425;-62
2021/10/20 10:06:46;;;;;;;4.10;3.70;;;14.60;94.60;;;;;;4952428;28;20178;-63
2021/10/20 10:09:14;;;;;;;4.73;3.63;;;14.60;94.40;;;;;;4936018;29;20450;-63
2021/10/20 10:11:46;;;;;;;6.00;4.00;;;14.60;94.60;;;;;;4963108;28;20465;-63
2021/10/20 10:14:14;;;;;;;5.67;4.37;;;14.60;93.80;;;;;;4941248;29;20419;-63
2021/10/20 10:16:42;;;;;;;11.13;3.93;;;14.60;93.40;;;;;;4949220;28;20943;-62
2021/10/20 10:19:08;;;;;;;5.27;3.77;;;14.60;93.50;;;;;;4951389;28;20441;-62
2021/10/20 10:21:37;;;;;;;4.73;3.90;;;14.60;93.90;;;;;;4951141;28;20877;-63
2021/10/20 10:24:17;;;;;;;4.83;4.33;;;14.60;94.60;;;;;;4951994;28;20547;-63
2021/10/20 10:27:03;;;;;;;9.43;4.70;;;14.70;95.70;;;;;;4941023;29;20817;-63
2021/10/20 10:29:29;;;;;;;6.40;4.30;;;14.90;95.50;;;;;;4951458;29;20450;-62
2021/10/20 10:32:01;;;;;;;7.43;3.27;;;15.20;94.90;;;;;;4949730;28;20446;-60
2021/10/20 10:34:35;;;;;;;6.40;3.37;;;15.60;91.70;;;;;;4951136;28;20430;-59
2021/10/20 10:37:02;;;;;;;4.60;3.43;;;15.70;90.90;;;;;;4966377;28;20841;-62
2021/10/20 10:39:29;;;;;;;5.20;3.80;;;15.90;91.00;;;;;;4948155;29;20477;-61
2021/10/20 10:42:00;;;;;;;5.43;4.07;;;16.00;85.10;;;;;;4946107;28;20447;-61
2021/10/20 10:44:31;;;;;;;5.10;4.17;;;16.20;82.00;;;;;;4946293;28;20460;-58
2021/10/20 10:47:25;;;;;;;3.83;3.53;;;16.20;79.00;;;;;;4950462;28;20430;-57
2021/10/20 10:49:56;;;;;;;7.20;3.60;;;16.30;76.70;;;;;;4949845;28;20453;-60
2021/10/20 10:52:32;;;;;;;8.07;3.93;;;16.20;76.60;;;;;;4974326;28;20500;-60
2021/10/20 10:55:07;;;;;;;6.70;3.50;;;16.10;79.60;;;;;;4951450;28;20822;-59
2021/10/20 10:57:49;;;;;;;4.30;3.87;;;16.10;80.70;;;;;;4950153;28;20998;-59
2021/10/20 11:00:17;;;;;;;4.03;3.63;;;16.30;81.00;;;;;;4949405;28;20652;-59
2021/10/20 11:03:08;;;;;;;6.13;4.33;;;16.80;78.30;;;;;;4937938;29;21100;-59
2021/10/20 11:05:34;;;;;;;3.90;3.50;;;17.30;72.40;;;;;;4947456;29;20532;-59
2021/10/20 11:08:11;;;;;;;6.23;3.63;;;17.70;69.70;;;;;;4955866;28;20787;-59
2021/10/20 11:10:39;;;;;;;4.00;3.40;;;18.00;65.10;;;;;;4957529;28;20194;-59
2021/10/20 11:13:05;;;;;;;5.43;3.63;;;18.20;63.80;;;;;;4968896;28;20429;-60
2021/10/20 11:15:33;;;;;;;5.97;3.80;;;18.30;60.80;;;;;;4953584;28;20950;-59
2021/10/20 11:17:59;;;;;;;8.53;3.63;;;18.20;62.10;;;;;;4949320;28;20496;-59
2021/10/20 11:20:28;;;;;;;4.67;3.67;;;18.30;62.30;;;;;;4950951;28;20481;-58
2021/10/20 11:22:56;;;;;;;4.37;3.47;;;18.50;60.70;;;;;;4950864;28;20536;-62
2021/10/20 11:25:23;;;;;;;5.50;4.00;;;18.50;60.80;;;;;;4951304;29;20798;-62
2021/10/20 11:27:54;;;;;;;5.03;3.40;;;18.40;62.30;;;;;;4951657;28;21166;-62
2021/10/20 11:30:25;;;;;;;5.80;3.50;;;18.40;62.10;;;;;;4966123;28;20461;-62
2021/10/20 11:32:52;;;;;;;4.67;3.47;;;18.30;61.60;;;;;;4947128;28;20882;-62
2021/10/20 11:35:23;;;;;;;6.00;2.87;;;18.10;62.60;;;;;;4955289;28;20430;-62
2021/10/20 11:38:13;;;;;;;4.73;3.03;;;17.90;64.30;;;;;;4950428;29;20795;-63
2021/10/20 11:40:47;;;;;;;5.10;3.67;;;17.90;66.70;;;;;;4947950;28;20442;-63
2021/10/20 11:43:23;;;;;;;5.50;3.63;;;18.30;66.80;;;;;;4950903;28;20515;-63
2021/10/20 11:45:49;;;;;;;5.83;3.93;;;19.00;64.20;;;;;;4953939;28;20779;-61
2021/10/20 11:48:18;;;;;;;5.97;3.30;;;19.70;62.00;;;;;;4966899;28;20492;-63
2021/10/20 11:50:51;;;;;;;5.50;3.17;;;20.40;58.70;;;;;;4950994;28;20214;-63
2021/10/20 11:53:18;;;;;;;5.80;3.13;;;21.00;57.40;;;;;;4945848;29;20516;-63
2021/10/20 11:55:46;;;;;;;4.60;3.40;;;21.50;54.30;;;;;;4949115;29;20434;-64
2021/10/20 11:58:23;;;;;;;6.93;3.33;;;21.90;52.50;;;;;;4952996;28;20843;-63
2021/10/20 12:00:59;;;;;;;3.70;3.40;;;22.10;51.70;;;;;;4940180;28;20493;-63
2021/10/20 12:03:32;;;;;;;6.27;3.43;;;22.40;50.00;;;;;;4948520;29;20515;-63
2021/10/20 12:06:00;;;;;;;3.50;3.00;;;22.80;49.20;;;;;;4964642;28;20434;-63
2021/10/20 12:08:25;;;;;;;5.13;3.00;;;23.20;49.00;;;;;;4949914;28;20968;-64
2021/10/20 12:13:17;;;;;;;8.37;2.77;;;23.70;46.80;;;;;;4998250;23;20437;-94
2021/10/20 12:15:44;;;;;;;3.30;3.00;;;23.10;47.90;;;;;;4991406;28;20416;-94
2021/10/20 12:18:11;;;;;;;3.50;2.53;;;22.40;49.10;;;;;;4984175;28;20169;-94
2021/10/20 12:20:37;;;;;;;6.60;3.63;;;21.80;50.30;;;;;;5012691;28;20417;-94
2021/10/20 12:23:03;;;;;;;5.50;3.53;;;21.10;51.00;;;;;;4996907;28;20449;-94
2021/10/20 12:25:33;;;;;;;5.40;3.43;;;20.80;52.20;;;;;;4983956;28;20418;-96
2021/10/20 12:28:00;;;;;;;4.00;3.50;;;20.80;52.90;;;;;;4996826;28;20185;-95
2021/10/20 12:30:28;;;;;;;4.60;3.10;;;20.90;52.80;;;;;;4997665;28;20437;-95
2021/10/20 12:32:53;;;;;;;5.57;3.40;;;21.30;52.90;;;;;;4995299;28;20453;-94
2021/10/20 12:35:20;;;;;;;3.27;2.97;;;21.80;52.10;;;;;;4999748;28;20397;-94
2021/10/20 12:37:49;;;;;;;9.73;3.50;;;22.20;52.20;;;;;;4995815;28;20155;-94
2021/10/20 12:40:14;;;;;;;5.80;3.87;;;22.70;51.30;;;;;;5001719;28;20413;-94
2021/10/20 12:42:52;;;;;;;6.80;3.60;;;23.30;50.50;;;;;;4987253;28;20430;-95
2021/10/20 12:45:20;;;;;;;6.17;3.70;;;23.60;49.10;;;;;;4993842;28;20158;-95
2021/10/20 12:47:49;;;;;;;4.07;3.37;;;23.60;48.70;;;;;;5015810;28;20397;-94
2021/10/20 12:50:18;;;;;;;4.00;3.60;;;23.20;48.80;;;;;;5013038;28;20497;-96
2021/10/20 12:52:58;;;;;;;5.50;3.47;;;22.70;49.50;;;;;;5005925;28;20421;-96